createdAt,value
2018-04-23T00:00:06.156Z,68.85
2018-04-23T00:01:06.385Z,71.04
2018-04-23T00:02:06.616Z,70.31
2018-04-23T00:03:06.847Z,73.00
2018-04-23T00:04:07.072Z,66.65
2018-04-23T00:05:07.306Z,72.02
2018-04-23T00:06:07.536Z,70.80
2018-04-23T00:07:07.773Z,74.71
2018-04-23T00:08:08.006Z,68.36
2018-04-23T00:09:08.229Z,73.49
2018-04-23T00:10:08.460Z,75.20
2018-04-23T00:11:08.691Z,70.80
2018-04-23T00:12:08.922Z,72.02
2018-04-23T00:13:09.153Z,72.51
2018-04-23T00:14:09.388Z,71.04
2018-04-23T00:15:09.618Z,76.90
2018-04-23T00:16:09.845Z,74.46
2018-04-23T00:17:10.074Z,67.87
2018-04-23T00:18:10.309Z,77.15
2018-04-23T00:19:10.538Z,72.75
2018-04-23T00:20:10.771Z,74.22
2018-04-23T00:21:11.003Z,72.51
2018-04-23T00:22:11.234Z,70.31
2018-04-23T00:23:11.472Z,68.36
2018-04-23T00:24:11.699Z,73.00
2018-04-23T00:25:11.931Z,75.44
2018-04-23T00:26:12.163Z,73.97
2018-04-23T00:27:12.390Z,71.78
2018-04-23T00:28:12.621Z,70.80
2018-04-23T00:29:12.851Z,74.71
2018-04-23T00:30:13.080Z,68.85
2018-04-23T00:31:13.313Z,71.53
2018-04-23T00:32:13.547Z,68.85
2018-04-23T00:33:13.776Z,72.51
2018-04-23T00:34:14.011Z,71.78
2018-04-23T00:35:14.234Z,74.95
2018-04-23T00:36:14.467Z,72.27
2018-04-23T00:37:14.696Z,73.49
2018-04-23T00:38:14.928Z,73.00
2018-04-23T00:39:15.158Z,75.68
2018-04-23T00:40:15.384Z,73.97
2018-04-23T00:41:15.624Z,74.95
2018-04-23T00:42:15.855Z,69.34
2018-04-23T00:43:16.083Z,76.66
2018-04-23T00:44:16.318Z,70.31
2018-04-23T00:45:16.546Z,72.51
2018-04-23T00:46:16.779Z,74.22
2018-04-23T00:47:17.005Z,73.49
2018-04-23T00:48:17.237Z,73.97
2018-04-23T00:49:17.465Z,74.71
2018-04-23T00:50:17.702Z,73.73
2018-04-23T00:51:17.933Z,77.64
2018-04-23T00:52:18.164Z,74.22
2018-04-23T00:53:18.399Z,77.88
2018-04-23T00:54:18.633Z,73.00
2018-04-23T00:55:18.865Z,75.44
2018-04-23T00:56:19.093Z,74.46
2018-04-23T00:57:19.326Z,73.97
2018-04-23T00:58:19.558Z,75.20
2018-04-23T00:59:19.788Z,70.31
2018-04-23T01:00:20.016Z,79.10
2018-04-23T01:01:20.250Z,76.17
2018-04-23T01:02:20.481Z,81.79
2018-04-23T01:03:20.712Z,78.86
2018-04-23T01:04:20.945Z,74.22
2018-04-23T01:05:21.175Z,73.24
2018-04-23T01:06:21.409Z,72.51
2018-04-23T01:07:21.636Z,79.83
2018-04-23T01:08:21.870Z,76.17
2018-04-23T01:09:22.102Z,69.82
2018-04-23T01:10:22.334Z,71.53
2018-04-23T01:11:22.564Z,72.27
2018-04-23T01:12:22.793Z,73.49
2018-04-23T01:13:23.021Z,73.49
2018-04-23T01:14:23.254Z,73.00
2018-04-23T01:15:23.490Z,72.27
2018-04-23T01:16:23.716Z,74.71
2018-04-23T01:17:23.948Z,70.07
2018-04-23T01:18:24.177Z,70.07
2018-04-23T01:19:24.410Z,68.12
2018-04-23T01:20:24.636Z,66.16
2018-04-23T01:21:24.865Z,70.80
2018-04-23T01:22:25.096Z,70.80
2018-04-23T01:23:25.327Z,73.97
2018-04-23T01:24:25.565Z,74.95
2018-04-23T01:25:25.789Z,71.78
2018-04-23T01:26:26.025Z,72.75
2018-04-23T01:27:26.248Z,72.27
2018-04-23T01:28:26.481Z,74.95
2018-04-23T01:29:26.709Z,72.51
2018-04-23T01:30:26.944Z,74.22
2018-04-23T01:31:27.174Z,80.81
2018-04-23T01:32:27.402Z,73.24
2018-04-23T01:33:27.634Z,78.13
2018-04-23T01:34:27.863Z,70.07
2018-04-23T01:35:28.092Z,72.51
2018-04-23T01:36:28.322Z,70.80
2018-04-23T01:37:28.553Z,71.78
2018-04-23T01:38:28.784Z,71.78
2018-04-23T01:39:29.015Z,76.17
2018-04-23T01:40:29.246Z,71.29
2018-04-23T01:41:29.478Z,73.73
2018-04-23T01:42:29.713Z,75.44
2018-04-23T01:43:29.941Z,67.38
2018-04-23T01:44:30.174Z,72.51
2018-04-23T01:45:30.403Z,72.02
2018-04-23T01:46:30.633Z,66.89
2018-04-23T01:47:30.862Z,70.07
2018-04-23T01:48:31.096Z,69.34
2018-04-23T01:49:31.322Z,72.51
2018-04-23T01:50:31.550Z,72.02
2018-04-23T01:51:31.781Z,74.71
2018-04-23T01:52:32.015Z,67.38
2018-04-23T01:53:32.243Z,71.53
2018-04-23T01:54:32.475Z,72.02
2018-04-23T01:55:32.708Z,71.29
2018-04-23T01:56:32.943Z,79.83
2018-04-23T01:57:33.166Z,69.34
2018-04-23T01:58:33.396Z,72.27
2018-04-23T01:59:33.628Z,70.80
2018-04-23T02:00:33.859Z,73.97
2018-04-23T02:01:34.090Z,68.60
2018-04-23T02:02:34.330Z,71.04
2018-04-23T02:03:34.554Z,68.12
2018-04-23T02:04:34.779Z,74.46
2018-04-23T02:05:35.011Z,72.75
2018-04-23T02:06:35.243Z,66.41
2018-04-23T02:07:35.478Z,69.34
2018-04-23T02:08:35.706Z,69.09
2018-04-23T02:09:35.936Z,70.56
2018-04-23T02:10:36.166Z,73.73
2018-04-23T02:11:36.399Z,71.29
2018-04-23T02:12:36.629Z,70.80
2018-04-23T02:13:36.867Z,71.53
2018-04-23T02:14:37.099Z,71.78
2018-04-23T02:15:37.328Z,72.27
2018-04-23T02:16:37.561Z,75.68
2018-04-23T02:17:37.792Z,71.53
2018-04-23T02:18:38.023Z,70.56
2018-04-23T02:19:38.254Z,74.22
2018-04-23T02:20:38.484Z,72.02
2018-04-23T02:21:38.716Z,73.00
2018-04-23T02:22:38.944Z,74.71
2018-04-23T02:23:39.175Z,73.00
2018-04-23T02:24:39.403Z,72.02
2018-04-23T02:25:39.638Z,77.39
2018-04-23T02:26:39.870Z,75.93
2018-04-23T02:27:40.100Z,72.02
2018-04-23T02:28:40.332Z,71.29
2018-04-23T02:29:40.562Z,73.97
2018-04-23T02:30:40.793Z,70.56
2018-04-23T02:31:41.024Z,72.27
2018-04-23T02:32:41.254Z,71.53
2018-04-23T02:33:41.486Z,71.29
2018-04-23T02:34:41.717Z,71.04
2018-04-23T02:35:41.946Z,74.22
2018-04-23T02:36:42.174Z,68.60
2018-04-23T02:37:42.406Z,71.53
2018-04-23T02:38:42.638Z,73.24
2018-04-23T02:39:42.869Z,75.93
2018-04-23T02:40:43.096Z,77.39
2018-04-23T02:41:43.329Z,71.04
2018-04-23T02:42:43.560Z,77.88
2018-04-23T02:43:43.791Z,78.61
2018-04-23T02:44:44.022Z,73.97
2018-04-23T02:45:44.254Z,72.75
2018-04-23T02:46:44.486Z,72.75
2018-04-23T02:47:44.721Z,78.37
2018-04-23T02:48:44.952Z,78.61
2018-04-23T02:49:45.177Z,75.44
2018-04-23T02:50:45.410Z,75.44
2018-04-23T02:51:45.639Z,77.88
2018-04-23T02:52:45.872Z,74.46
2018-04-23T02:53:46.100Z,71.29
2018-04-23T02:54:46.332Z,72.75
2018-04-23T02:55:46.561Z,72.02
2018-04-23T02:56:46.795Z,69.58
2018-04-23T02:57:47.026Z,71.29
2018-04-23T02:58:47.263Z,69.58
2018-04-23T02:59:47.487Z,71.53
2018-04-23T03:00:47.717Z,70.56
2018-04-23T03:01:47.947Z,73.97
2018-04-23T03:02:48.181Z,78.13
2018-04-23T03:03:48.412Z,72.51
2018-04-23T03:04:48.642Z,74.46
2018-04-23T03:05:48.874Z,73.00
2018-04-23T03:06:49.105Z,67.38
2018-04-23T03:07:49.332Z,68.85
2018-04-23T03:08:49.562Z,69.34
2018-04-23T03:09:49.793Z,69.82
2018-04-23T03:10:50.024Z,75.20
2018-04-23T03:11:50.256Z,74.71
2018-04-23T03:12:50.484Z,77.39
2018-04-23T03:13:50.715Z,73.49
2018-04-23T03:14:50.948Z,80.81
2018-04-23T03:15:51.179Z,75.68
2018-04-23T03:16:51.409Z,71.78
2018-04-23T03:17:51.644Z,72.02
2018-04-23T03:18:51.875Z,71.29
2018-04-23T03:19:52.102Z,76.42
2018-04-23T03:20:52.339Z,75.20
2018-04-23T03:21:52.570Z,75.93
2018-04-23T03:22:52.801Z,75.20
2018-04-23T03:23:53.032Z,72.51
2018-04-23T03:24:53.263Z,72.02
2018-04-23T03:25:53.494Z,74.71
2018-04-23T03:26:53.730Z,73.73
2018-04-23T03:27:53.958Z,79.10
2018-04-23T03:28:54.188Z,74.46
2018-04-23T03:29:54.418Z,73.24
2018-04-23T03:30:54.650Z,72.75
2018-04-23T03:31:54.881Z,71.78
2018-04-23T03:32:55.116Z,71.78
2018-04-23T03:33:55.348Z,69.82
2018-04-23T03:34:55.581Z,77.15
2018-04-23T03:35:55.807Z,71.04
2018-04-23T03:36:56.038Z,74.22
2018-04-23T03:37:56.274Z,69.58
2018-04-23T03:38:56.493Z,73.49
2018-04-23T03:39:56.725Z,70.56
2018-04-23T03:40:56.954Z,70.31
2018-04-23T03:41:57.185Z,66.16
2018-04-23T03:42:57.413Z,65.67
2018-04-23T03:43:57.644Z,64.70
2018-04-23T03:44:57.873Z,66.89
2018-04-23T03:45:58.104Z,67.87
2018-04-23T03:46:58.342Z,69.58
2018-04-23T03:47:58.576Z,68.36
2018-04-23T03:48:58.804Z,66.41
2018-04-23T03:49:59.035Z,69.82
2018-04-23T03:50:59.260Z,62.74
2018-04-23T03:51:59.490Z,71.53
2018-04-23T03:52:59.721Z,70.56
2018-04-23T03:53:59.953Z,70.31
2018-04-23T03:55:00.183Z,69.34
2018-04-23T03:56:00.411Z,69.58
2018-04-23T03:57:00.637Z,72.27
2018-04-23T03:58:00.869Z,72.75
2018-04-23T03:59:01.101Z,75.68
2018-04-23T04:00:01.332Z,75.93
2018-04-23T04:01:01.563Z,74.46
2018-04-23T04:02:01.796Z,74.71
2018-04-23T04:03:02.027Z,71.53
2018-04-23T04:04:02.257Z,69.82
2018-04-23T04:05:02.488Z,71.29
2018-04-23T04:06:02.718Z,70.56
2018-04-23T04:07:02.954Z,69.58
2018-04-23T04:08:03.176Z,71.04
2018-04-23T04:09:03.406Z,71.53
2018-04-23T04:10:03.637Z,70.80
2018-04-23T04:11:03.869Z,75.44
2018-04-23T04:12:04.104Z,70.31
2018-04-23T04:13:04.337Z,68.85
2018-04-23T04:14:04.567Z,70.56
2018-04-23T04:15:04.798Z,70.31
2018-04-23T04:16:05.029Z,74.46
2018-04-23T04:17:05.258Z,71.53
2018-04-23T04:18:05.487Z,69.82
2018-04-23T04:19:05.720Z,71.78
2018-04-23T04:20:05.949Z,74.71
2018-04-23T04:21:06.187Z,75.20
2018-04-23T04:22:06.410Z,73.73
2018-04-23T04:23:06.647Z,73.24
2018-04-23T04:24:06.874Z,72.75
2018-04-23T04:25:07.106Z,72.51
2018-04-23T04:26:07.337Z,75.93
2018-04-23T04:27:07.568Z,75.68
2018-04-23T04:28:07.798Z,74.71
2018-04-23T04:29:08.029Z,72.27
2018-04-23T04:30:08.262Z,74.46
2018-04-23T04:31:08.493Z,76.66
2018-04-23T04:32:08.724Z,79.10
2018-04-23T04:33:08.953Z,76.17
2018-04-23T04:34:09.189Z,71.04
2018-04-23T04:35:09.415Z,75.68
2018-04-23T04:36:09.650Z,73.97
2018-04-23T04:37:09.880Z,73.00
2018-04-23T04:38:10.110Z,79.83
2018-04-23T04:39:10.340Z,72.27
2018-04-23T04:40:10.573Z,76.17
2018-04-23T04:41:10.806Z,73.24
2018-04-23T04:42:11.033Z,73.00
2018-04-23T04:43:11.268Z,71.04
2018-04-23T04:44:11.501Z,71.29
2018-04-23T04:45:11.734Z,77.15
2018-04-23T04:46:11.964Z,73.49
2018-04-23T04:47:12.195Z,76.42
2018-04-23T04:48:12.424Z,70.31
2018-04-23T04:49:12.655Z,69.34
2018-04-23T04:50:12.888Z,72.02
2018-04-23T04:51:13.119Z,73.49
2018-04-23T04:52:13.355Z,73.24
2018-04-23T04:53:13.583Z,77.88
2018-04-23T04:54:13.812Z,74.95
2018-04-23T04:55:14.043Z,73.97
2018-04-23T04:56:14.279Z,71.53
2018-04-23T04:57:14.503Z,73.97
2018-04-23T04:58:14.735Z,74.71
2018-04-23T04:59:14.964Z,74.95
2018-04-23T05:00:15.200Z,75.20
2018-04-23T05:01:15.429Z,76.42
2018-04-23T05:02:15.660Z,74.95
2018-04-23T05:03:15.893Z,73.73
2018-04-23T05:04:16.125Z,74.46
2018-04-23T05:05:16.370Z,72.75
2018-04-23T05:06:16.599Z,73.49
2018-04-23T05:07:16.832Z,81.30
2018-04-23T05:08:17.065Z,74.22
2018-04-23T05:09:17.299Z,73.97
2018-04-23T05:10:17.527Z,73.24
2018-04-23T05:11:17.763Z,70.80
2018-04-23T05:12:17.995Z,70.56
2018-04-23T05:13:18.221Z,72.27
2018-04-23T05:14:18.452Z,72.75
2018-04-23T05:15:18.685Z,75.68
2018-04-23T05:16:18.917Z,73.00
2018-04-23T05:17:19.149Z,77.15
2018-04-23T05:18:19.380Z,71.53
2018-04-23T05:19:19.611Z,76.66
2018-04-23T05:20:19.841Z,73.73
2018-04-23T05:21:20.071Z,73.24
2018-04-23T05:22:20.308Z,73.73
2018-04-23T05:23:20.539Z,73.73
2018-04-23T05:24:20.767Z,75.44
2018-04-23T05:25:20.999Z,73.24
2018-04-23T05:26:21.232Z,74.22
2018-04-23T05:27:21.461Z,72.51
2018-04-23T05:28:21.693Z,73.24
2018-04-23T05:29:21.924Z,70.56
2018-04-23T05:30:22.155Z,70.31
2018-04-23T05:31:22.389Z,71.29
2018-04-23T05:32:22.618Z,71.04
2018-04-23T05:33:22.852Z,69.34
2018-04-23T05:34:23.079Z,70.56
2018-04-23T05:35:23.302Z,72.51
2018-04-23T05:36:23.530Z,69.09
2018-04-23T05:37:23.761Z,69.34
2018-04-23T05:38:23.993Z,70.31
2018-04-23T05:39:24.225Z,72.02
2018-04-23T05:40:24.455Z,70.07
2018-04-23T05:41:24.688Z,69.34
2018-04-23T05:42:24.917Z,74.46
2018-04-23T05:43:25.149Z,69.34
2018-04-23T05:44:25.385Z,71.78
2018-04-23T05:45:25.612Z,68.60
2018-04-23T05:46:25.844Z,67.38
2018-04-23T05:47:26.074Z,69.82
2018-04-23T05:48:26.310Z,71.78
2018-04-23T05:49:26.548Z,71.53
2018-04-23T05:50:26.772Z,75.20
2018-04-23T05:51:27.002Z,74.71
2018-04-23T05:52:27.234Z,75.93
2018-04-23T05:53:27.464Z,73.49
2018-04-23T05:54:27.697Z,74.22
2018-04-23T05:55:27.926Z,74.22
2018-04-23T05:56:28.158Z,74.46
2018-04-23T05:57:28.388Z,73.73
2018-04-23T05:58:28.625Z,74.71
2018-04-23T05:59:28.851Z,72.75
2018-04-23T06:00:29.086Z,73.97
2018-04-23T06:01:29.316Z,69.34
2018-04-23T06:02:29.548Z,71.04
2018-04-23T06:03:29.779Z,70.56
2018-04-23T06:04:30.011Z,72.02
2018-04-23T06:05:30.244Z,73.73
2018-04-23T06:06:30.475Z,73.24
2018-04-23T06:07:30.705Z,71.04
2018-04-23T06:08:30.937Z,73.73
2018-04-23T06:09:31.171Z,78.86
2018-04-23T06:10:31.405Z,74.22
2018-04-23T06:11:31.635Z,70.31
2018-04-23T06:12:31.865Z,71.78
2018-04-23T06:13:32.090Z,71.04
2018-04-23T06:14:32.322Z,72.75
2018-04-23T06:15:32.558Z,72.75
2018-04-23T06:16:32.785Z,75.44
2018-04-23T06:17:33.020Z,75.68
2018-04-23T06:18:33.253Z,74.46
2018-04-23T06:19:33.483Z,72.75
2018-04-23T06:20:33.714Z,73.24
2018-04-23T06:21:33.945Z,70.80
2018-04-23T06:22:34.178Z,73.00
2018-04-23T06:23:34.406Z,73.00
2018-04-23T06:24:34.636Z,71.04
2018-04-23T06:25:34.867Z,71.78
2018-04-23T06:26:35.098Z,70.80
2018-04-23T06:27:35.352Z,72.51
2018-04-23T06:28:35.560Z,70.80
2018-04-23T06:29:35.791Z,73.00
2018-04-23T06:30:36.022Z,72.02
2018-04-23T06:31:36.253Z,74.22
2018-04-23T06:32:36.485Z,76.17
2018-04-23T06:33:36.716Z,71.53
2018-04-23T06:34:36.945Z,70.80
2018-04-23T06:35:37.178Z,77.64
2018-04-23T06:36:37.420Z,74.22
2018-04-23T06:37:37.641Z,73.49
2018-04-23T06:38:37.872Z,73.00
2018-04-23T06:39:38.108Z,71.78
2018-04-23T06:40:38.337Z,76.66
2018-04-23T06:41:38.567Z,75.93
2018-04-23T06:42:38.799Z,76.17
2018-04-23T06:43:39.035Z,74.71
2018-04-23T06:44:39.266Z,74.46
2018-04-23T06:45:39.499Z,71.53
2018-04-23T06:46:39.728Z,72.02
2018-04-23T06:47:39.959Z,76.66
2018-04-23T06:48:40.189Z,76.90
2018-04-23T06:49:40.418Z,72.02
2018-04-23T06:50:40.654Z,73.73
2018-04-23T06:51:40.887Z,71.53
2018-04-23T06:52:41.119Z,76.42
2018-04-23T06:53:41.349Z,72.75
2018-04-23T06:54:41.587Z,78.13
2018-04-23T06:55:41.813Z,70.07
2018-04-23T06:56:42.043Z,72.27
2018-04-23T06:57:42.275Z,72.27
2018-04-23T06:58:42.506Z,71.78
2018-04-23T06:59:42.747Z,71.04
2018-04-23T07:00:42.979Z,72.02
2018-04-23T07:01:43.250Z,74.46
2018-04-23T07:02:43.459Z,68.85
2018-04-23T07:03:43.683Z,68.12
2018-04-23T07:04:43.949Z,70.56
2018-04-23T07:05:44.150Z,68.85
2018-04-23T07:06:44.382Z,70.07
2018-04-23T07:07:44.613Z,67.38
2018-04-23T07:08:44.840Z,67.87
2018-04-23T07:09:45.074Z,68.60
2018-04-23T07:10:45.313Z,72.02
2018-04-23T07:11:45.542Z,68.12
2018-04-23T07:12:45.775Z,69.09
2018-04-23T07:13:46.004Z,69.58
2018-04-23T07:14:46.234Z,69.58
2018-04-23T07:15:46.467Z,69.34
2018-04-23T07:16:46.700Z,70.80
2018-04-23T07:17:46.936Z,68.60
2018-04-23T07:18:47.164Z,69.34
2018-04-23T07:19:47.398Z,67.87
2018-04-23T07:20:47.631Z,68.60
2018-04-23T07:21:47.861Z,66.89
2018-04-23T07:22:48.095Z,70.07
2018-04-23T07:23:48.323Z,70.80
2018-04-23T07:24:48.552Z,71.53
2018-04-23T07:25:48.783Z,66.89
2018-04-23T07:26:49.015Z,69.58
2018-04-23T07:27:49.250Z,72.51
2018-04-23T07:28:49.477Z,72.02
2018-04-23T07:29:49.711Z,70.56
2018-04-23T07:30:49.946Z,66.65
2018-04-23T07:31:50.178Z,67.63
2018-04-23T07:32:50.415Z,71.29
2018-04-23T07:33:50.647Z,70.07
2018-04-23T07:34:50.896Z,71.29
2018-04-23T07:35:51.109Z,68.85
2018-04-23T07:36:51.348Z,67.14
2018-04-23T07:37:51.576Z,69.34
2018-04-23T07:38:51.811Z,65.43
2018-04-23T07:39:52.040Z,66.89
2018-04-23T07:40:52.272Z,69.82
2018-04-23T07:41:52.504Z,68.85
2018-04-23T07:42:52.739Z,70.31
2018-04-23T07:43:52.971Z,69.09
2018-04-23T07:44:53.202Z,67.14
2018-04-23T07:45:53.437Z,68.12
2018-04-23T07:46:53.679Z,69.82
2018-04-23T07:47:53.949Z,68.36
2018-04-23T07:48:54.140Z,63.96
2018-04-23T07:49:54.372Z,64.94
2018-04-23T07:50:54.606Z,68.85
2018-04-23T07:51:54.843Z,70.31
2018-04-23T07:52:55.076Z,68.36
2018-04-23T07:53:55.308Z,74.71
2018-04-23T07:54:55.549Z,65.92
2018-04-23T07:55:55.802Z,72.02
2018-04-23T07:56:56.011Z,65.43
2018-04-23T07:57:56.249Z,68.12
2018-04-23T07:58:56.476Z,65.67
2018-04-23T07:59:56.724Z,64.94
2018-04-23T08:00:56.944Z,65.92
2018-04-23T08:01:57.184Z,65.43
2018-04-23T08:02:57.407Z,66.89
2018-04-23T08:03:57.640Z,67.63
2018-04-23T08:04:57.870Z,68.12
2018-04-23T08:05:58.105Z,65.19
2018-04-23T08:06:58.346Z,67.38
2018-04-23T08:07:58.573Z,66.41
2018-04-23T08:08:58.813Z,64.45
2018-04-23T08:09:59.045Z,62.74
2018-04-23T08:10:59.279Z,66.16
2018-04-23T08:11:59.512Z,66.89
2018-04-23T08:12:59.745Z,75.20
2018-04-23T08:14:00.012Z,63.96
2018-04-23T08:15:00.217Z,66.41
2018-04-23T08:16:00.451Z,74.95
2018-04-23T08:17:00.687Z,72.02
2018-04-23T08:18:00.932Z,79.35
2018-04-23T08:19:01.182Z,66.16
2018-04-23T08:20:01.387Z,65.43
2018-04-23T08:21:01.623Z,65.92
2018-04-23T08:22:01.857Z,66.16
2018-04-23T08:23:02.095Z,73.24
2018-04-23T08:24:02.333Z,64.70
2018-04-23T08:25:02.557Z,67.14
2018-04-23T08:26:02.792Z,64.94
2018-04-23T08:27:03.028Z,62.99
2018-04-23T08:28:03.260Z,64.45
2018-04-23T08:29:03.492Z,66.41
2018-04-23T08:30:03.723Z,70.07
2018-04-23T08:31:03.956Z,63.72
2018-04-23T08:32:04.188Z,64.21
2018-04-23T08:33:04.432Z,64.45
2018-04-23T08:34:04.646Z,66.16
2018-04-23T08:35:04.880Z,63.96
2018-04-23T08:36:05.120Z,66.41
2018-04-23T08:37:05.356Z,63.96
2018-04-23T08:38:05.579Z,65.19
2018-04-23T08:39:05.801Z,66.41
2018-04-23T08:40:06.038Z,69.34
2018-04-23T08:41:06.269Z,67.14
2018-04-23T08:42:06.505Z,67.38
2018-04-23T08:43:06.741Z,65.43
2018-04-23T08:44:06.972Z,64.94
2018-04-23T08:45:07.212Z,66.65
2018-04-23T08:46:07.444Z,68.36
2018-04-23T08:47:07.680Z,67.87
2018-04-23T08:48:07.955Z,63.72
2018-04-23T08:49:08.147Z,63.23
2018-04-23T08:50:08.382Z,65.67
2018-04-23T08:51:08.620Z,64.70
2018-04-23T08:52:08.858Z,62.74
2018-04-23T08:53:09.083Z,64.94
2018-04-23T08:54:09.325Z,63.96
2018-04-23T08:55:09.557Z,64.45
2018-04-23T08:56:09.792Z,65.92
2018-04-23T08:57:10.020Z,66.65
2018-04-23T08:58:10.248Z,70.56
2018-04-23T08:59:10.483Z,68.36
2018-04-23T09:00:10.716Z,69.34
2018-04-23T09:01:10.949Z,92.77
2018-04-23T09:02:11.183Z,89.11
2018-04-23T09:03:11.419Z,79.35
2018-04-23T09:04:11.654Z,64.94
2018-04-23T09:05:11.895Z,62.74
2018-04-23T09:06:12.120Z,63.23
2018-04-23T09:07:12.355Z,63.48
2018-04-23T09:08:12.590Z,65.67
2018-04-23T09:09:12.825Z,63.23
2018-04-23T09:10:13.060Z,63.72
2018-04-23T09:11:13.296Z,64.21
2018-04-23T09:12:13.537Z,64.21
2018-04-23T09:13:13.781Z,68.36
2018-04-23T09:14:14.007Z,64.70
2018-04-23T09:15:14.236Z,68.12
2018-04-23T09:16:14.483Z,64.70
2018-04-23T09:17:14.698Z,64.45
2018-04-23T09:18:14.935Z,66.41
2018-04-23T09:19:15.169Z,73.00
2018-04-23T09:20:15.398Z,65.43
2018-04-23T09:21:15.648Z,60.06
2018-04-23T09:22:15.862Z,66.89
2018-04-23T09:23:16.098Z,62.01
2018-04-23T09:24:16.384Z,60.55
2018-04-23T09:25:16.566Z,63.96
2018-04-23T09:26:16.802Z,65.43
2018-04-23T09:27:17.043Z,64.70
2018-04-23T09:28:17.270Z,63.48
2018-04-23T09:29:17.502Z,64.45
2018-04-23T09:30:17.737Z,64.45
2018-04-23T09:31:17.970Z,63.96
2018-04-23T09:32:18.207Z,62.99
2018-04-23T09:33:18.450Z,67.87
2018-04-23T09:34:18.666Z,64.21
2018-04-23T09:35:18.908Z,62.26
2018-04-23T09:36:19.143Z,75.20
2018-04-23T09:37:19.379Z,65.19
2018-04-23T09:38:19.614Z,64.45
2018-04-23T09:39:19.847Z,63.72
2018-04-23T09:40:20.084Z,65.67
2018-04-23T09:41:20.317Z,75.20
2018-04-23T09:42:20.546Z,62.99
2018-04-23T09:43:20.780Z,62.50
2018-04-23T09:44:21.020Z,67.14
2018-04-23T09:45:21.250Z,66.41
2018-04-23T09:46:21.488Z,75.20
2018-04-23T09:47:21.721Z,71.78
2018-04-23T09:48:21.961Z,62.99
2018-04-23T09:49:22.208Z,62.74
2018-04-23T09:50:22.432Z,63.48
2018-04-23T09:51:22.666Z,63.96
2018-04-23T09:52:22.902Z,70.80
2018-04-23T09:53:23.136Z,68.85
2018-04-23T09:54:23.376Z,62.50
2018-04-23T09:55:23.606Z,63.96
2018-04-23T09:56:23.852Z,62.50
2018-04-23T09:57:24.075Z,63.72
2018-04-23T09:58:24.310Z,75.68
2018-04-23T09:59:24.555Z,68.85
2018-04-23T10:00:24.783Z,64.94
2018-04-23T10:01:25.020Z,65.19
2018-04-23T10:02:25.253Z,61.52
2018-04-23T10:03:25.486Z,61.28
2018-04-23T10:04:25.702Z,62.99
2018-04-23T10:05:25.953Z,63.48
2018-04-23T10:06:26.192Z,63.48
2018-04-23T10:07:26.430Z,64.21
2018-04-23T10:08:26.661Z,62.50
2018-04-23T10:09:26.896Z,62.74
2018-04-23T10:10:27.142Z,61.77
2018-04-23T10:11:27.380Z,62.50
2018-04-23T10:12:27.614Z,63.23
2018-04-23T10:13:27.910Z,64.21
2018-04-23T10:14:28.078Z,63.48
2018-04-23T10:15:28.314Z,62.74
2018-04-23T10:16:28.548Z,61.52
2018-04-23T10:17:28.785Z,66.89
2018-04-23T10:18:29.027Z,62.50
2018-04-23T10:19:29.257Z,62.50
2018-04-23T10:20:29.496Z,72.75
2018-04-23T10:21:29.723Z,66.16
2018-04-23T10:22:29.964Z,61.77
2018-04-23T10:23:30.202Z,65.43
2018-04-23T10:24:30.438Z,64.70
2018-04-23T10:25:30.665Z,63.72
2018-04-23T10:26:30.904Z,68.60
2018-04-23T10:27:31.144Z,66.89
2018-04-23T10:28:31.378Z,73.49
2018-04-23T10:29:31.607Z,65.92
2018-04-23T10:30:31.843Z,66.41
2018-04-23T10:31:32.076Z,63.48
2018-04-23T10:32:32.311Z,62.26
2018-04-23T10:33:32.545Z,63.72
2018-04-23T10:34:32.784Z,61.77
2018-04-23T10:35:33.020Z,59.81
2018-04-23T10:36:33.259Z,64.21
2018-04-23T10:37:33.504Z,62.99
2018-04-23T10:38:33.731Z,62.74
2018-04-23T10:39:33.966Z,63.23
2018-04-23T10:40:34.205Z,62.50
2018-04-23T10:41:34.441Z,62.01
2018-04-23T10:42:34.679Z,64.94
2018-04-23T10:43:34.935Z,61.28
2018-04-23T10:44:35.156Z,65.43
2018-04-23T10:45:35.388Z,62.26
2018-04-23T10:46:35.627Z,62.01
2018-04-23T10:47:35.851Z,60.55
2018-04-23T10:48:36.092Z,61.77
2018-04-23T10:49:36.328Z,65.43
2018-04-23T10:50:36.559Z,63.48
2018-04-23T10:51:36.800Z,63.48
2018-04-23T10:52:37.035Z,63.48
2018-04-23T10:53:37.275Z,63.23
2018-04-23T10:54:37.510Z,64.21
2018-04-23T10:55:37.744Z,65.92
2018-04-23T10:56:37.986Z,62.50
2018-04-23T10:57:38.221Z,70.31
2018-04-23T10:58:38.452Z,65.92
2018-04-23T10:59:38.689Z,64.70
2018-04-23T11:00:38.927Z,66.41
2018-04-23T11:01:39.160Z,63.48
2018-04-23T11:02:39.394Z,64.94
2018-04-23T11:03:39.636Z,63.48
2018-04-23T11:04:39.876Z,64.70
2018-04-23T11:05:40.111Z,62.74
2018-04-23T11:06:40.343Z,61.04
2018-04-23T11:07:40.584Z,64.94
2018-04-23T11:08:40.819Z,68.60
2018-04-23T11:09:41.098Z,72.75
2018-04-23T11:10:41.296Z,64.21
2018-04-23T11:11:41.529Z,64.94
2018-04-23T11:12:41.766Z,70.31
2018-04-23T11:13:42.001Z,64.21
2018-04-23T11:14:42.235Z,64.94
2018-04-23T11:15:42.477Z,64.21
2018-04-23T11:16:42.711Z,63.23
2018-04-23T11:17:42.942Z,63.48
2018-04-23T11:18:43.178Z,71.29
2018-04-23T11:19:43.416Z,73.49
2018-04-23T11:20:43.652Z,65.43
2018-04-23T11:21:43.887Z,65.19
2018-04-23T11:22:44.124Z,65.67
2018-04-23T11:23:44.356Z,66.16
2018-04-23T11:24:44.642Z,66.41
2018-04-23T11:25:44.834Z,64.45
2018-04-23T11:26:45.068Z,74.95
2018-04-23T11:27:45.307Z,63.48
2018-04-23T11:28:45.548Z,63.96
2018-04-23T11:29:45.779Z,65.43
2018-04-23T11:30:46.018Z,62.99
2018-04-23T11:31:46.250Z,64.94
2018-04-23T11:32:46.485Z,74.71
2018-04-23T11:33:46.741Z,64.45
2018-04-23T11:34:46.957Z,66.41
2018-04-23T11:35:47.189Z,65.43
2018-04-23T11:36:47.422Z,64.21
2018-04-23T11:37:47.654Z,64.94
2018-04-23T11:38:47.909Z,62.26
2018-04-23T11:39:48.139Z,63.96
2018-04-23T11:40:48.373Z,67.63
2018-04-23T11:41:48.612Z,63.48
2018-04-23T11:42:48.832Z,63.48
2018-04-23T11:43:49.074Z,64.70
2018-04-23T11:44:49.301Z,66.16
2018-04-23T11:45:49.541Z,64.94
2018-04-23T11:46:49.764Z,60.55
2018-04-23T11:47:50.002Z,62.74
2018-04-23T11:48:50.225Z,64.94
2018-04-23T11:49:50.458Z,64.70
2018-04-23T11:50:50.717Z,61.77
2018-04-23T11:51:50.973Z,63.72
2018-04-23T11:52:51.207Z,62.01
2018-04-23T11:53:51.442Z,62.74
2018-04-23T11:54:51.672Z,61.52
2018-04-23T11:55:51.904Z,62.26
2018-04-23T11:56:52.131Z,62.74
2018-04-23T11:57:52.356Z,62.99
2018-04-23T11:58:52.596Z,63.72
2018-04-23T11:59:52.834Z,61.52
2018-04-23T12:00:53.070Z,63.23
2018-04-23T12:01:53.304Z,65.67
2018-04-23T12:02:53.555Z,62.99
2018-04-23T12:03:53.767Z,63.96
2018-04-23T12:04:54.003Z,63.96
2018-04-23T12:05:54.245Z,63.72
2018-04-23T12:06:54.486Z,61.04
2018-04-23T12:07:54.692Z,59.57
2018-04-23T12:08:54.920Z,64.21
2018-04-23T12:09:55.173Z,61.52
2018-04-23T12:10:55.425Z,64.70
2018-04-23T12:11:55.654Z,62.99
2018-04-23T12:12:55.932Z,60.30
2018-04-23T12:13:56.155Z,63.72
2018-04-23T12:14:56.388Z,63.23
2018-04-23T12:15:56.630Z,63.23
2018-04-23T12:16:56.871Z,61.28
2018-04-23T12:17:57.084Z,62.74
2018-04-23T12:18:57.334Z,67.38
2018-04-23T12:19:57.557Z,63.48
2018-04-23T12:20:57.790Z,66.65
2018-04-23T12:21:58.026Z,64.94
2018-04-23T12:22:58.262Z,63.96
2018-04-23T12:23:58.501Z,64.94
2018-04-23T12:24:58.734Z,67.38
2018-04-23T12:25:58.969Z,68.85
2018-04-23T12:26:59.204Z,63.48
2018-04-23T12:27:59.448Z,64.45
2018-04-23T12:28:59.677Z,65.43
2018-04-23T12:29:59.916Z,63.72
2018-04-23T12:31:00.150Z,62.26
2018-04-23T12:32:00.395Z,67.14
2018-04-23T12:33:00.636Z,67.14
2018-04-23T12:34:00.869Z,65.43
2018-04-23T12:35:01.102Z,63.96
2018-04-23T12:36:01.344Z,64.94
2018-04-23T12:37:01.574Z,62.01
2018-04-23T12:38:01.809Z,62.99
2018-04-23T12:39:02.078Z,65.43
2018-04-23T12:40:02.312Z,65.19
2018-04-23T12:41:02.548Z,64.21
2018-04-23T12:42:02.785Z,65.43
2018-04-23T12:43:03.027Z,61.04
2018-04-23T12:44:03.263Z,62.74
2018-04-23T12:45:03.497Z,65.92
2018-04-23T12:46:03.774Z,66.16
2018-04-23T12:47:03.973Z,63.96
2018-04-23T12:48:04.208Z,65.67
2018-04-23T12:49:04.447Z,61.52
2018-04-23T12:50:04.681Z,63.23
2018-04-23T12:51:04.949Z,62.99
2018-04-23T12:52:05.154Z,63.96
2018-04-23T12:53:05.391Z,61.77
2018-04-23T12:54:05.625Z,63.48
2018-04-23T12:55:05.861Z,66.89